HST,Max TemperatureF,Mean TemperatureF,Min TemperatureF,Max Dew PointF,MeanDew PointF,Min DewpointF,Max Humidity, Mean Humidity, Min Humidity, Max Sea Level PressureIn, Mean Sea Level PressureIn, Min Sea Level PressureIn, Max VisibilityMiles, Mean VisibilityMiles, Min VisibilityMiles, Max Wind SpeedMPH, Mean Wind SpeedMPH, Max Gust SpeedMPH,PrecipitationIn, CloudCover, Events, WindDirDegrees
2013-9-1,84,80,75,68,65,61,66,58,50,29.99,29.95,29.91,10,10,10,13,7,,0.00,3,,177
2013-9-2,88,80,73,67,63,58,62,55,43,30.00,29.96,29.90,10,10,10,13,6,,0.00,2,,150
2013-9-3,86,80,75,68,64,56,71,59,45,30.00,29.96,29.91,10,10,10,14,7,,0.00,2,,169
2013-9-4,84,78,73,69,64,55,65,57,44,30.02,29.98,29.94,10,10,10,13,7,,0.00,3,,210
2013-9-5,88,82,77,69,65,62,65,59,48,30.08,30.01,29.97,10,10,10,18,10,23,0.00,2,,133
2013-9-6,86,82,77,68,67,63,74,63,51,30.06,30.02,29.97,10,10,10,16,6,,0.00,4,Rain,201
2013-9-7,86,80,75,70,69,66,74,66,57,30.02,29.99,29.93,10,10,10,10,7,,0.00,5,,189
2013-9-8,86,82,78,73,69,61,72,64,50,30.04,29.99,29.95,10,10,10,17,7,,0.00,4,,179
2013-9-9,87,81,75,69,64,61,72,56,46,30.05,30.00,29.97,10,10,10,16,6,24,0.00,3,,119
2013-9-10,86,80,75,69,65,59,66,59,52,30.04,30.00,29.95,10,10,10,14,7,,0.00,1,,169
2013-9-11,87,82,77,71,67,62,72,62,44,30.05,30.00,29.95,10,10,10,13,7,,0.00,2,,156
2013-9-12,88,82,77,73,70,66,74,65,53,29.99,29.94,29.88,10,10,10,17,7,,0.00,4,,195
2013-9-13,84,80,75,73,70,65,82,71,62,29.92,29.88,29.84,10,10,9,13,6,,0.04,4,Rain,218
2013-9-14,86,80,73,72,70,67,82,69,55,29.93,29.89,29.84,10,10,10,12,5,,0.00,5,,193
2013-9-15,86,82,77,70,68,60,79,64,49,29.95,29.91,29.87,10,10,6,15,8,,0.08,2,Rain,204
2013-9-16,86,80,73,71,68,65,83,67,55,29.99,29.96,29.92,10,10,10,13,7,,0.00,2,,156
2013-9-17,84,80,77,72,68,64,74,66,60,29.98,29.94,29.90,10,10,10,12,7,,0.00,4,Rain,152
2013-9-18,87,81,75,70,67,59,74,62,48,29.97,29.93,29.90,10,10,10,17,9,,0.00,1,,152
2013-9-19,86,82,77,68,64,59,65,55,49,30.01,29.96,29.91,10,10,10,20,11,26,0.00,1,,119
2013-9-20,84,80,75,69,64,58,66,56,44,30.01,29.97,29.94,10,10,10,21,9,20,0.00,3,,137
2013-9-21,86,80,75,69,66,63,69,61,55,30.00,29.97,29.92,10,10,10,12,6,,0.00,6,,171
2013-9-22,84,80,77,70,67,65,66,61,54,30.00,29.96,29.91,10,10,10,12,6,,0.00,5,,161
2013-9-23,86,80,75,69,67,63,69,60,51,29.98,29.94,29.89,10,10,10,12,7,,0.00,2,,192
2013-9-24,86,82,77,70,66,63,74,61,49,29.99,29.94,29.89,10,10,10,17,6,,0.00,4,Rain,176
2013-9-25,84,78,73,71,69,65,87,71,58,30.02,29.97,29.93,10,10,7,16,8,30,0.00,5,Rain,162
2013-9-26,84,78,73,70,69,66,87,72,53,29.98,29.95,29.92,10,10,10,17,8,22,0.00,6,,188
2013-9-27,84,80,75,70,67,61,76,65,54,30.04,29.99,29.94,10,10,10,14,7,,0.00,3,,161
2013-9-28,87,81,75,68,65,61,71,61,53,30.05,30.01,29.96,10,10,10,12,7,,0.00,2,,170
2013-9-29,84,78,73,69,67,64,76,65,56,30.01,29.97,29.92,10,10,10,14,6,,0.00,4,,134
2013-9-30,84,80,75,70,67,63,79,65,49,30.01,29.97,29.93,10,10,10,12,6,,0.00,2,,164